This is the latest recevied weather packets stored in our database for station/object DH8TOM-4. If no packets are shown the sender has not sent any weather packets the latest 10 day(s).
| Time | Temp. | Humidity | Pressure | Rain* | Wind** | Luminosity | Snow |
|---|---|---|---|---|---|---|---|
| 1777878759 | 21.11° C | 57% | 1012.6 hPa | - | - | - | - |
| 1777878457 | 21.11° C | 57% | 1012.6 hPa | - | - | - | - |
| 1777878158 | 21.67° C | 56% | 1012.4 hPa | - | - | - | - |
| 1777877856 | 21.67° C | 56% | 1012.4 hPa | - | - | - | - |
| 1777877555 | 21.67° C | 56% | 1012.4 hPa | - | - | - | - |
| 1777877253 | 21.67° C | 56% | 1012.4 hPa | - | - | - | - |
| 1777876953 | 21.67° C | 56% | 1012.4 hPa | - | - | - | - |
| 1777876651 | 21.67° C | 58% | 1012.4 hPa | - | - | - | - |
| 1777876351 | 21.67° C | 58% | 1012.4 hPa | - | - | - | - |
| 1777876053 | 20.56° C | 60% | 1012.3 hPa | - | - | - | - |
| 1777875748 | 20.56° C | 60% | 1012.3 hPa | - | - | - | - |
| 1777875449 | 18.89° C | 63% | 1012.1 hPa | - | - | - | - |
| 1777875146 | 17.78° C | 67% | 1012 hPa | - | - | - | - |
| 1777874846 | 17.78° C | 67% | 1012 hPa | - | - | - | - |
| 1777874545 | 17.78° C | 67% | 1012 hPa | - | - | - | - |
| 1777874243 | 16.11° C | 67% | 1012 hPa | - | - | - | - |
| 1777873943 | 16.11° C | 67% | 1012 hPa | - | - | - | - |
| 1777873643 | 15.56° C | 67% | 1012 hPa | - | - | - | - |
| 1777873343 | 15.56° C | 68% | 1011.9 hPa | - | - | - | - |
| 1777873042 | 15.56° C | 68% | 1011.9 hPa | - | - | - | - |
| 1777872739 | 15° C | 71% | 1011.9 hPa | - | - | - | - |
| 1777872438 | 15° C | 71% | 1011.9 hPa | - | - | - | - |
| 1777872137 | 15° C | 71% | 1011.9 hPa | - | - | - | - |
| 1777871835 | 13.89° C | 72% | 1011.9 hPa | - | - | - | - |
| 1777871535 | 13.89° C | 72% | 1011.9 hPa | - | - | - | - |
* Rain since midnight (hover to see other rain measurements)
** Current wind speed in m/s (hover to see current wind gust speed)